sensor_id;sensor_type;location;lat;lon;timestamp;temperature;humidity
10304;DHT22;5197;48.152;8.590;2023-04-29T00:01:24;12.80;34.00
10304;DHT22;5197;48.152;8.590;2023-04-29T00:03:52;12.80;35.80
10304;DHT22;5197;48.152;8.590;2023-04-29T00:06:19;12.80;34.80
10304;DHT22;5197;48.152;8.590;2023-04-29T00:08:47;12.80;34.80
10304;DHT22;5197;48.152;8.590;2023-04-29T00:11:14;12.80;35.00
10304;DHT22;5197;48.152;8.590;2023-04-29T00:13:41;12.80;35.20
10304;DHT22;5197;48.152;8.590;2023-04-29T00:16:08;12.80;35.50
10304;DHT22;5197;48.152;8.590;2023-04-29T00:18:37;12.80;35.40
10304;DHT22;5197;48.152;8.590;2023-04-29T00:21:04;12.80;34.90
10304;DHT22;5197;48.152;8.590;2023-04-29T00:23:35;12.80;34.90
10304;DHT22;5197;48.152;8.590;2023-04-29T00:26:02;12.80;35.10
10304;DHT22;5197;48.152;8.590;2023-04-29T00:28:29;12.80;35.10
10304;DHT22;5197;48.152;8.590;2023-04-29T00:30:56;12.80;34.80
10304;DHT22;5197;48.152;8.590;2023-04-29T00:33:23;12.80;34.20
10304;DHT22;5197;48.152;8.590;2023-04-29T00:35:50;12.70;33.90
10304;DHT22;5197;48.152;8.590;2023-04-29T00:38:18;12.60;34.40
10304;DHT22;5197;48.152;8.590;2023-04-29T00:40:45;12.70;34.40
10304;DHT22;5197;48.152;8.590;2023-04-29T00:43:12;12.70;34.20
10304;DHT22;5197;48.152;8.590;2023-04-29T00:45:39;12.60;33.90
10304;DHT22;5197;48.152;8.590;2023-04-29T00:48:06;12.60;33.70
10304;DHT22;5197;48.152;8.590;2023-04-29T00:50:34;12.60;33.50
10304;DHT22;5197;48.152;8.590;2023-04-29T00:53:02;12.60;33.60
10304;DHT22;5197;48.152;8.590;2023-04-29T00:55:30;12.50;33.50
10304;DHT22;5197;48.152;8.590;2023-04-29T00:57:58;12.50;33.70
10304;DHT22;5197;48.152;8.590;2023-04-29T01:00:26;12.50;33.90
10304;DHT22;5197;48.152;8.590;2023-04-29T01:02:54;12.50;34.00
10304;DHT22;5197;48.152;8.590;2023-04-29T01:05:23;12.50;34.10
10304;DHT22;5197;48.152;8.590;2023-04-29T01:13:30;12.40;33.60
10304;DHT22;5197;48.152;8.590;2023-04-29T01:16:07;12.40;33.50
10304;DHT22;5197;48.152;8.590;2023-04-29T01:18:41;12.30;33.60
10304;DHT22;5197;48.152;8.590;2023-04-29T01:21:11;12.30;33.50
10304;DHT22;5197;48.152;8.590;2023-04-29T01:23:38;12.20;34.20
10304;DHT22;5197;48.152;8.590;2023-04-29T01:26:05;12.20;34.30
10304;DHT22;5197;48.152;8.590;2023-04-29T01:31:38;12.20;34.60
10304;DHT22;5197;48.152;8.590;2023-04-29T01:44:54;12.00;34.10
10304;DHT22;5197;48.152;8.590;2023-04-29T01:47:21;12.00;34.50
10304;DHT22;5197;48.152;8.590;2023-04-29T01:49:48;12.00;34.10
10304;DHT22;5197;48.152;8.590;2023-04-29T01:52:15;12.00;34.20
10304;DHT22;5197;48.152;8.590;2023-04-29T01:54:43;12.00;34.40
10304;DHT22;5197;48.152;8.590;2023-04-29T01:57:10;12.00;34.80
10304;DHT22;5197;48.152;8.590;2023-04-29T01:59:37;12.00;34.90
10304;DHT22;5197;48.152;8.590;2023-04-29T02:02:04;12.00;35.10
10304;DHT22;5197;48.152;8.590;2023-04-29T02:04:30;11.90;35.10
10304;DHT22;5197;48.152;8.590;2023-04-29T02:07:00;12.00;34.50
10304;DHT22;5197;48.152;8.590;2023-04-29T02:09:27;12.00;34.20
10304;DHT22;5197;48.152;8.590;2023-04-29T02:11:54;11.90;34.00
10304;DHT22;5197;48.152;8.590;2023-04-29T02:14:21;11.90;34.00
10304;DHT22;5197;48.152;8.590;2023-04-29T02:16:48;11.80;34.00
10304;DHT22;5197;48.152;8.590;2023-04-29T02:19:16;11.70;33.90
10304;DHT22;5197;48.152;8.590;2023-04-29T02:21:45;11.70;34.30
10304;DHT22;5197;48.152;8.590;2023-04-29T02:24:12;11.70;34.70
10304;DHT22;5197;48.152;8.590;2023-04-29T02:26:39;11.70;35.10
10304;DHT22;5197;48.152;8.590;2023-04-29T02:29:06;11.70;35.30
10304;DHT22;5197;48.152;8.590;2023-04-29T02:31:34;11.70;34.80
10304;DHT22;5197;48.152;8.590;2023-04-29T02:34:01;11.80;35.90
10304;DHT22;5197;48.152;8.590;2023-04-29T02:36:28;11.80;36.00
10304;DHT22;5197;48.152;8.590;2023-04-29T02:38:55;11.80;35.30
10304;DHT22;5197;48.152;8.590;2023-04-29T02:41:22;11.70;34.60
10304;DHT22;5197;48.152;8.590;2023-04-29T02:43:49;11.70;34.80
10304;DHT22;5197;48.152;8.590;2023-04-29T02:46:17;11.60;35.10
10304;DHT22;5197;48.152;8.590;2023-04-29T02:48:44;11.60;35.50
10304;DHT22;5197;48.152;8.590;2023-04-29T02:51:11;11.60;35.20
10304;DHT22;5197;48.152;8.590;2023-04-29T02:53:38;11.60;35.00
10304;DHT22;5197;48.152;8.590;2023-04-29T02:56:05;11.60;36.60
10304;DHT22;5197;48.152;8.590;2023-04-29T02:58:33;11.60;35.60
10304;DHT22;5197;48.152;8.590;2023-04-29T03:01:00;11.60;35.70
10304;DHT22;5197;48.152;8.590;2023-04-29T03:03:27;11.60;34.90
10304;DHT22;5197;48.152;8.590;2023-04-29T03:05:54;11.50;35.30
10304;DHT22;5197;48.152;8.590;2023-04-29T03:08:21;11.50;35.40
10304;DHT22;5197;48.152;8.590;2023-04-29T03:10:48;11.50;35.70
10304;DHT22;5197;48.152;8.590;2023-04-29T03:13:15;11.50;35.90
10304;DHT22;5197;48.152;8.590;2023-04-29T03:15:42;11.50;36.10
10304;DHT22;5197;48.152;8.590;2023-04-29T03:18:10;11.50;36.10
10304;DHT22;5197;48.152;8.590;2023-04-29T03:20:37;11.50;36.20
10304;DHT22;5197;48.152;8.590;2023-04-29T03:23:04;11.50;36.10
10304;DHT22;5197;48.152;8.590;2023-04-29T03:25:31;11.50;35.80
10304;DHT22;5197;48.152;8.590;2023-04-29T03:27:58;11.50;35.90
10304;DHT22;5197;48.152;8.590;2023-04-29T03:30:25;11.50;35.90
10304;DHT22;5197;48.152;8.590;2023-04-29T03:32:52;11.50;35.80
10304;DHT22;5197;48.152;8.590;2023-04-29T03:35:19;11.40;36.30
10304;DHT22;5197;48.152;8.590;2023-04-29T03:37:46;11.40;36.40
10304;DHT22;5197;48.152;8.590;2023-04-29T03:40:13;11.40;36.50
10304;DHT22;5197;48.152;8.590;2023-04-29T03:42:40;11.30;35.90
10304;DHT22;5197;48.152;8.590;2023-04-29T03:45:08;11.30;35.60
10304;DHT22;5197;48.152;8.590;2023-04-29T03:47:36;11.30;35.40
10304;DHT22;5197;48.152;8.590;2023-04-29T03:50:04;11.10;35.50
10304;DHT22;5197;48.152;8.590;2023-04-29T03:52:31;11.20;35.80
10304;DHT22;5197;48.152;8.590;2023-04-29T03:54:58;11.20;36.00
10304;DHT22;5197;48.152;8.590;2023-04-29T03:57:26;11.20;36.30
10304;DHT22;5197;48.152;8.590;2023-04-29T03:59:53;11.20;36.30
10304;DHT22;5197;48.152;8.590;2023-04-29T04:02:20;11.10;36.30
10304;DHT22;5197;48.152;8.590;2023-04-29T04:04:47;11.20;35.80
10304;DHT22;5197;48.152;8.590;2023-04-29T04:07:15;11.10;34.70
10304;DHT22;5197;48.152;8.590;2023-04-29T04:09:42;11.00;35.60
10304;DHT22;5197;48.152;8.590;2023-04-29T04:12:09;11.10;35.90
10304;DHT22;5197;48.152;8.590;2023-04-29T04:14:36;12.60;37.10
10304;DHT22;5197;48.152;8.590;2023-04-29T04:17:03;10.90;35.90
10304;DHT22;5197;48.152;8.590;2023-04-29T04:19:30;10.90;35.80
10304;DHT22;5197;48.152;8.590;2023-04-29T04:21:58;10.90;36.00
10304;DHT22;5197;48.152;8.590;2023-04-29T04:24:25;10.80;35.90
10304;DHT22;5197;48.152;8.590;2023-04-29T04:26:52;10.90;35.60
10304;DHT22;5197;48.152;8.590;2023-04-29T04:29:19;10.80;35.20
10304;DHT22;5197;48.152;8.590;2023-04-29T04:31:46;10.70;33.60
10304;DHT22;5197;48.152;8.590;2023-04-29T04:34:13;10.70;35.20
10304;DHT22;5197;48.152;8.590;2023-04-29T04:36:40;10.70;35.90
10304;DHT22;5197;48.152;8.590;2023-04-29T04:39:08;10.60;36.20
10304;DHT22;5197;48.152;8.590;2023-04-29T04:41:35;10.70;36.80
10304;DHT22;5197;48.152;8.590;2023-04-29T04:44:02;10.70;37.00
10304;DHT22;5197;48.152;8.590;2023-04-29T04:46:29;10.80;37.40
10304;DHT22;5197;48.152;8.590;2023-04-29T04:48:56;10.70;37.00
10304;DHT22;5197;48.152;8.590;2023-04-29T04:51:23;10.70;36.90
10304;DHT22;5197;48.152;8.590;2023-04-29T04:53:50;10.70;36.80
10304;DHT22;5197;48.152;8.590;2023-04-29T04:56:18;10.70;37.60
10304;DHT22;5197;48.152;8.590;2023-04-29T04:58:45;10.80;38.00
10304;DHT22;5197;48.152;8.590;2023-04-29T05:01:12;10.80;38.50
10304;DHT22;5197;48.152;8.590;2023-04-29T05:03:39;10.80;39.10
10304;DHT22;5197;48.152;8.590;2023-04-29T05:06:07;10.90;39.80
10304;DHT22;5197;48.152;8.590;2023-04-29T05:08:34;11.00;40.30
10304;DHT22;5197;48.152;8.590;2023-04-29T05:11:01;11.10;41.00
10304;DHT22;5197;48.152;8.590;2023-04-29T05:13:28;11.10;41.50
10304;DHT22;5197;48.152;8.590;2023-04-29T05:15:55;11.20;42.00
10304;DHT22;5197;48.152;8.590;2023-04-29T05:18:22;11.30;42.70
10304;DHT22;5197;48.152;8.590;2023-04-29T05:20:49;11.40;43.30
10304;DHT22;5197;48.152;8.590;2023-04-29T05:23:16;11.40;43.50
10304;DHT22;5197;48.152;8.590;2023-04-29T05:25:43;11.60;43.90
10304;DHT22;5197;48.152;8.590;2023-04-29T05:28:10;11.60;44.10
10304;DHT22;5197;48.152;8.590;2023-04-29T05:30:37;11.70;44.70
10304;DHT22;5197;48.152;8.590;2023-04-29T05:33:04;11.70;45.40
10304;DHT22;5197;48.152;8.590;2023-04-29T05:35:32;11.80;45.80
10304;DHT22;5197;48.152;8.590;2023-04-29T05:37:59;11.90;46.30
10304;DHT22;5197;48.152;8.590;2023-04-29T05:40:27;11.90;46.30
10304;DHT22;5197;48.152;8.590;2023-04-29T05:42:55;12.00;46.20
10304;DHT22;5197;48.152;8.590;2023-04-29T05:45:22;12.00;45.70
10304;DHT22;5197;48.152;8.590;2023-04-29T05:47:49;12.10;45.60
10304;DHT22;5197;48.152;8.590;2023-04-29T05:50:16;12.10;45.50
10304;DHT22;5197;48.152;8.590;2023-04-29T05:52:43;12.20;45.80
10304;DHT22;5197;48.152;8.590;2023-04-29T05:55:10;12.20;46.60
10304;DHT22;5197;48.152;8.590;2023-04-29T05:57:37;12.30;48.50
10304;DHT22;5197;48.152;8.590;2023-04-29T06:00:05;12.40;48.70
10304;DHT22;5197;48.152;8.590;2023-04-29T06:02:32;12.50;47.40
10304;DHT22;5197;48.152;8.590;2023-04-29T06:05:05;12.60;46.50
10304;DHT22;5197;48.152;8.590;2023-04-29T06:07:33;12.60;45.70
10304;DHT22;5197;48.152;8.590;2023-04-29T06:10:00;12.60;44.70
10304;DHT22;5197;48.152;8.590;2023-04-29T06:12:27;12.70;43.90
10304;DHT22;5197;48.152;8.590;2023-04-29T06:14:54;12.70;42.70
10304;DHT22;5197;48.152;8.590;2023-04-29T06:17:21;12.70;42.10
10304;DHT22;5197;48.152;8.590;2023-04-29T06:19:48;12.70;41.60
10304;DHT22;5197;48.152;8.590;2023-04-29T06:22:15;12.60;42.70
10304;DHT22;5197;48.152;8.590;2023-04-29T06:24:42;12.50;41.60
10304;DHT22;5197;48.152;8.590;2023-04-29T06:27:09;12.40;42.10
10304;DHT22;5197;48.152;8.590;2023-04-29T06:29:35;12.30;42.60
10304;DHT22;5197;48.152;8.590;2023-04-29T06:32:03;12.20;40.80
10304;DHT22;5197;48.152;8.590;2023-04-29T06:34:30;12.20;42.70
10304;DHT22;5197;48.152;8.590;2023-04-29T06:36:57;12.30;44.90
10304;DHT22;5197;48.152;8.590;2023-04-29T06:39:24;12.30;41.30
10304;DHT22;5197;48.152;8.590;2023-04-29T06:41:51;12.50;37.90
10304;DHT22;5197;48.152;8.590;2023-04-29T06:44:18;12.60;44.70
10304;DHT22;5197;48.152;8.590;2023-04-29T06:46:45;12.90;46.40
10304;DHT22;5197;48.152;8.590;2023-04-29T06:49:13;13.20;41.20
10304;DHT22;5197;48.152;8.590;2023-04-29T06:51:40;13.50;41.00
10304;DHT22;5197;48.152;8.590;2023-04-29T06:54:08;13.80;42.40
10304;DHT22;5197;48.152;8.590;2023-04-29T06:56:35;14.10;43.10
10304;DHT22;5197;48.152;8.590;2023-04-29T06:59:03;14.40;38.90
10304;DHT22;5197;48.152;8.590;2023-04-29T07:01:30;14.50;32.10
10304;DHT22;5197;48.152;8.590;2023-04-29T07:03:57;14.50;28.40
10304;DHT22;5197;48.152;8.590;2023-04-29T07:06:24;14.40;26.50
10304;DHT22;5197;48.152;8.590;2023-04-29T07:08:52;14.20;23.60
10304;DHT22;5197;48.152;8.590;2023-04-29T07:11:22;14.00;23.50
10304;DHT22;5197;48.152;8.590;2023-04-29T07:13:52;13.80;23.30
10304;DHT22;5197;48.152;8.590;2023-04-29T07:16:19;13.70;22.40
10304;DHT22;5197;48.152;8.590;2023-04-29T07:18:47;13.70;23.30
10304;DHT22;5197;48.152;8.590;2023-04-29T07:21:15;13.60;23.30
10304;DHT22;5197;48.152;8.590;2023-04-29T07:23:42;13.70;24.40
10304;DHT22;5197;48.152;8.590;2023-04-29T07:26:13;14.00;23.50
10304;DHT22;5197;48.152;8.590;2023-04-29T07:28:42;13.80;20.10
10304;DHT22;5197;48.152;8.590;2023-04-29T07:31:10;13.50;19.20
10304;DHT22;5197;48.152;8.590;2023-04-29T07:33:38;13.50;21.20
10304;DHT22;5197;48.152;8.590;2023-04-29T07:36:05;13.50;23.10
10304;DHT22;5197;48.152;8.590;2023-04-29T07:38:33;13.80;23.30
10304;DHT22;5197;48.152;8.590;2023-04-29T07:41:00;14.10;22.30
10304;DHT22;5197;48.152;8.590;2023-04-29T07:43:27;14.10;17.60
10304;DHT22;5197;48.152;8.590;2023-04-29T07:45:57;14.10;16.70
10304;DHT22;5197;48.152;8.590;2023-04-29T07:48:24;14.00;16.50
10304;DHT22;5197;48.152;8.590;2023-04-29T07:50:51;14.00;18.10
10304;DHT22;5197;48.152;8.590;2023-04-29T07:53:18;14.10;17.60
10304;DHT22;5197;48.152;8.590;2023-04-29T07:55:45;14.00;17.10
10304;DHT22;5197;48.152;8.590;2023-04-29T07:58:13;13.70;16.20
10304;DHT22;5197;48.152;8.590;2023-04-29T08:00:40;13.50;17.00
10304;DHT22;5197;48.152;8.590;2023-04-29T08:03:07;13.20;16.70
10304;DHT22;5197;48.152;8.590;2023-04-29T08:05:34;13.20;18.20
10304;DHT22;5197;48.152;8.590;2023-04-29T08:08:02;13.20;18.60
10304;DHT22;5197;48.152;8.590;2023-04-29T08:10:29;13.40;18.50
10304;DHT22;5197;48.152;8.590;2023-04-29T08:12:56;13.60;17.60
10304;DHT22;5197;48.152;8.590;2023-04-29T08:15:23;13.70;17.00
10304;DHT22;5197;48.152;8.590;2023-04-29T08:17:50;13.70;17.40
10304;DHT22;5197;48.152;8.590;2023-04-29T08:20:18;13.60;16.20
10304;DHT22;5197;48.152;8.590;2023-04-29T08:22:45;13.40;16.10
10304;DHT22;5197;48.152;8.590;2023-04-29T08:25:12;13.50;17.50
10304;DHT22;5197;48.152;8.590;2023-04-29T08:27:39;13.70;19.30
10304;DHT22;5197;48.152;8.590;2023-04-29T08:30:06;13.80;17.00
10304;DHT22;5197;48.152;8.590;2023-04-29T08:32:33;14.00;17.10
10304;DHT22;5197;48.152;8.590;2023-04-29T08:35:01;14.00;16.40
10304;DHT22;5197;48.152;8.590;2023-04-29T08:37:28;13.90;16.30
10304;DHT22;5197;48.152;8.590;2023-04-29T08:39:55;13.60;15.90
10304;DHT22;5197;48.152;8.590;2023-04-29T08:42:32;13.50;16.80
10304;DHT22;5197;48.152;8.590;2023-04-29T08:45:01;13.60;21.60
10304;DHT22;5197;48.152;8.590;2023-04-29T08:47:32;13.60;19.00
10304;DHT22;5197;48.152;8.590;2023-04-29T08:50:04;13.70;18.60
10304;DHT22;5197;48.152;8.590;2023-04-29T08:52:31;13.70;18.10
10304;DHT22;5197;48.152;8.590;2023-04-29T08:54:59;13.90;19.20
10304;DHT22;5197;48.152;8.590;2023-04-29T08:57:29;13.90;16.40
10304;DHT22;5197;48.152;8.590;2023-04-29T08:59:58;13.70;16.40
10304;DHT22;5197;48.152;8.590;2023-04-29T09:02:27;13.60;16.90
10304;DHT22;5197;48.152;8.590;2023-04-29T09:07:25;13.80;17.50
10304;DHT22;5197;48.152;8.590;2023-04-29T09:09:53;13.70;16.80
10304;DHT22;5197;48.152;8.590;2023-04-29T09:12:20;13.70;18.50
10304;DHT22;5197;48.152;8.590;2023-04-29T09:14:47;13.70;15.30
10304;DHT22;5197;48.152;8.590;2023-04-29T09:17:14;13.60;17.30
10304;DHT22;5197;48.152;8.590;2023-04-29T09:19:43;13.50;15.90
10304;DHT22;5197;48.152;8.590;2023-04-29T09:22:10;13.60;23.30
10304;DHT22;5197;48.152;8.590;2023-04-29T09:24:37;13.70;17.80
10304;DHT22;5197;48.152;8.590;2023-04-29T09:27:05;13.70;16.00
10304;DHT22;5197;48.152;8.590;2023-04-29T09:29:32;13.40;17.30
10304;DHT22;5197;48.152;8.590;2023-04-29T09:32:00;13.50;19.10
10304;DHT22;5197;48.152;8.590;2023-04-29T09:34:44;13.40;18.90
10304;DHT22;5197;48.152;8.590;2023-04-29T09:37:24;13.30;14.90
10304;DHT22;5197;48.152;8.590;2023-04-29T09:39:53;13.20;17.50
10304;DHT22;5197;48.152;8.590;2023-04-29T09:42:21;13.40;20.10
10304;DHT22;5197;48.152;8.590;2023-04-29T09:44:48;13.50;20.40
10304;DHT22;5197;48.152;8.590;2023-04-29T09:47:15;13.60;17.60
10304;DHT22;5197;48.152;8.590;2023-04-29T09:49:43;13.70;16.90
10304;DHT22;5197;48.152;8.590;2023-04-29T09:52:15;14.00;20.30
10304;DHT22;5197;48.152;8.590;2023-04-29T09:54:43;14.10;17.50
10304;DHT22;5197;48.152;8.590;2023-04-29T09:57:11;14.20;15.60
10304;DHT22;5197;48.152;8.590;2023-04-29T09:59:41;14.20;14.00
10304;DHT22;5197;48.152;8.590;2023-04-29T10:02:16;14.30;16.30
10304;DHT22;5197;48.152;8.590;2023-04-29T10:04:52;14.40;12.30
10304;DHT22;5197;48.152;8.590;2023-04-29T10:07:20;14.50;12.30
10304;DHT22;5197;48.152;8.590;2023-04-29T10:09:50;14.50;10.50
10304;DHT22;5197;48.152;8.590;2023-04-29T10:12:19;14.50;11.80
10304;DHT22;5197;48.152;8.590;2023-04-29T10:14:56;14.60;12.30
10304;DHT22;5197;48.152;8.590;2023-04-29T10:17:42;14.70;11.50
10304;DHT22;5197;48.152;8.590;2023-04-29T10:20:13;14.70;9.10
10304;DHT22;5197;48.152;8.590;2023-04-29T10:22:50;14.80;8.80
10304;DHT22;5197;48.152;8.590;2023-04-29T10:25:19;14.90;8.50
10304;DHT22;5197;48.152;8.590;2023-04-29T10:27:48;14.80;7.80
10304;DHT22;5197;48.152;8.590;2023-04-29T10:30:17;14.90;10.70
10304;DHT22;5197;48.152;8.590;2023-04-29T10:32:45;14.90;9.70
10304;DHT22;5197;48.152;8.590;2023-04-29T10:35:21;14.80;4.30
10304;DHT22;5197;48.152;8.590;2023-04-29T10:37:50;14.80;9.70
10304;DHT22;5197;48.152;8.590;2023-04-29T10:43:02;14.70;6.30
10304;DHT22;5197;48.152;8.590;2023-04-29T10:45:31;14.80;8.70
10304;DHT22;5197;48.152;8.590;2023-04-29T10:53:18;14.90;8.10
10304;DHT22;5197;48.152;8.590;2023-04-29T10:56:02;14.70;6.90
10304;DHT22;5197;48.152;8.590;2023-04-29T10:58:43;14.40;5.80
10304;DHT22;5197;48.152;8.590;2023-04-29T11:01:13;14.40;6.60
10304;DHT22;5197;48.152;8.590;2023-04-29T11:11:45;14.80;6.50
10304;DHT22;5197;48.152;8.590;2023-04-29T11:14:13;15.00;4.40
10304;DHT22;5197;48.152;8.590;2023-04-29T11:17:00;15.00;5.10
10304;DHT22;5197;48.152;8.590;2023-04-29T11:19:33;15.20;6.00
10304;DHT22;5197;48.152;8.590;2023-04-29T11:22:24;15.20;3.70
10304;DHT22;5197;48.152;8.590;2023-04-29T11:27:38;14.90;2.40
10304;DHT22;5197;48.152;8.590;2023-04-29T11:30:08;15.00;2.80
10304;DHT22;5197;48.152;8.590;2023-04-29T11:32:37;15.00;4.20
10304;DHT22;5197;48.152;8.590;2023-04-29T11:35:13;14.90;1.00
10304;DHT22;5197;48.152;8.590;2023-04-29T11:37:42;15.00;2.00
10304;DHT22;5197;48.152;8.590;2023-04-29T11:40:09;15.10;3.70
10304;DHT22;5197;48.152;8.590;2023-04-29T11:42:45;15.30;4.50
10304;DHT22;5197;48.152;8.590;2023-04-29T11:45:12;15.30;1.10
10304;DHT22;5197;48.152;8.590;2023-04-29T11:47:45;15.20;1.00
10304;DHT22;5197;48.152;8.590;2023-04-29T11:50:13;15.10;1.00
10304;DHT22;5197;48.152;8.590;2023-04-29T11:52:45;15.10;1.00
10304;DHT22;5197;48.152;8.590;2023-04-29T11:55:13;15.30;1.10
10304;DHT22;5197;48.152;8.590;2023-04-29T11:57:40;15.30;1.00
10304;DHT22;5197;48.152;8.590;2023-04-29T12:00:09;15.20;1.00
10304;DHT22;5197;48.152;8.590;2023-04-29T12:02:38;15.30;1.10
10304;DHT22;5197;48.152;8.590;2023-04-29T12:05:09;15.20;1.00
10304;DHT22;5197;48.152;8.590;2023-04-29T12:07:39;15.00;1.00
10304;DHT22;5197;48.152;8.590;2023-04-29T12:10:10;15.00;1.00
10304;DHT22;5197;48.152;8.590;2023-04-29T12:12:38;15.10;1.00
10304;DHT22;5197;48.152;8.590;2023-04-29T12:15:08;15.20;1.00
10304;DHT22;5197;48.152;8.590;2023-04-29T12:17:36;15.30;1.00
10304;DHT22;5197;48.152;8.590;2023-04-29T12:20:05;15.40;1.00
10304;DHT22;5197;48.152;8.590;2023-04-29T12:22:34;15.50;1.20
10304;DHT22;5197;48.152;8.590;2023-04-29T12:25:05;15.60;1.30
10304;DHT22;5197;48.152;8.590;2023-04-29T12:27:35;15.50;1.20
10304;DHT22;5197;48.152;8.590;2023-04-29T12:30:06;15.50;1.20
10304;DHT22;5197;48.152;8.590;2023-04-29T12:32:34;15.70;1.30
10304;DHT22;5197;48.152;8.590;2023-04-29T12:35:03;15.80;1.50
10304;DHT22;5197;48.152;8.590;2023-04-29T12:37:30;15.80;1.00
10304;DHT22;5197;48.152;8.590;2023-04-29T12:39:58;15.80;1.00
10304;DHT22;5197;48.152;8.590;2023-04-29T12:42:31;15.80;1.00
10304;DHT22;5197;48.152;8.590;2023-04-29T12:45:00;15.60;1.00
10304;DHT22;5197;48.152;8.590;2023-04-29T12:47:31;14.70;1.00
10304;DHT22;5197;48.152;8.590;2023-04-29T12:50:00;15.60;1.30
10304;DHT22;5197;48.152;8.590;2023-04-29T12:52:27;15.60;1.00
10304;DHT22;5197;48.152;8.590;2023-04-29T12:54:55;15.70;1.30
10304;DHT22;5197;48.152;8.590;2023-04-29T12:57:23;15.80;1.00
10304;DHT22;5197;48.152;8.590;2023-04-29T12:59:52;15.90;1.50
10304;DHT22;5197;48.152;8.590;2023-04-29T13:02:19;15.90;1.60
10304;DHT22;5197;48.152;8.590;2023-04-29T13:04:46;16.00;1.00
10304;DHT22;5197;48.152;8.590;2023-04-29T13:07:14;15.90;1.00
10304;DHT22;5197;48.152;8.590;2023-04-29T13:09:41;15.90;1.00
10304;DHT22;5197;48.152;8.590;2023-04-29T13:12:08;16.10;1.00
10304;DHT22;5197;48.152;8.590;2023-04-29T13:14:35;16.00;1.00
10304;DHT22;5197;48.152;8.590;2023-04-29T13:17:02;15.90;1.00
10304;DHT22;5197;48.152;8.590;2023-04-29T13:19:29;15.90;1.00
10304;DHT22;5197;48.152;8.590;2023-04-29T13:22:16;15.90;1.00
10304;DHT22;5197;48.152;8.590;2023-04-29T13:24:43;16.00;1.00
10304;DHT22;5197;48.152;8.590;2023-04-29T13:27:10;15.90;1.00
10304;DHT22;5197;48.152;8.590;2023-04-29T13:29:37;15.90;1.00
10304;DHT22;5197;48.152;8.590;2023-04-29T13:32:04;16.10;1.00
10304;DHT22;5197;48.152;8.590;2023-04-29T13:34:32;16.20;1.00
10304;DHT22;5197;48.152;8.590;2023-04-29T13:36:59;16.20;1.00
10304;DHT22;5197;48.152;8.590;2023-04-29T13:39:27;16.20;1.00
10304;DHT22;5197;48.152;8.590;2023-04-29T13:41:54;15.80;1.00
10304;DHT22;5197;48.152;8.590;2023-04-29T13:44:25;15.90;1.00
10304;DHT22;5197;48.152;8.590;2023-04-29T13:47:05;15.90;1.00
10304;DHT22;5197;48.152;8.590;2023-04-29T13:49:33;15.80;1.00
10304;DHT22;5197;48.152;8.590;2023-04-29T13:52:20;15.80;1.00
10304;DHT22;5197;48.152;8.590;2023-04-29T13:54:50;16.00;1.00
10304;DHT22;5197;48.152;8.590;2023-04-29T13:57:37;15.90;1.00
10304;DHT22;5197;48.152;8.590;2023-04-29T14:00:24;16.00;1.00
10304;DHT22;5197;48.152;8.590;2023-04-29T14:03:11;15.90;1.00
10304;DHT22;5197;48.152;8.590;2023-04-29T14:05:38;15.80;1.00
10304;DHT22;5197;48.152;8.590;2023-04-29T14:08:07;15.80;1.00
10304;DHT22;5197;48.152;8.590;2023-04-29T14:10:34;15.70;1.00
10304;DHT22;5197;48.152;8.590;2023-04-29T14:13:02;15.70;1.00
10304;DHT22;5197;48.152;8.590;2023-04-29T14:15:29;15.90;1.00
10304;DHT22;5197;48.152;8.590;2023-04-29T14:17:57;15.50;1.00
10304;DHT22;5197;48.152;8.590;2023-04-29T14:20:25;15.50;1.00
10304;DHT22;5197;48.152;8.590;2023-04-29T14:22:52;15.60;1.00
10304;DHT22;5197;48.152;8.590;2023-04-29T14:25:20;15.30;1.00
10304;DHT22;5197;48.152;8.590;2023-04-29T14:27:47;15.30;1.00
10304;DHT22;5197;48.152;8.590;2023-04-29T14:30:15;15.30;1.00
10304;DHT22;5197;48.152;8.590;2023-04-29T14:32:42;15.40;1.00
10304;DHT22;5197;48.152;8.590;2023-04-29T14:35:09;15.40;1.00
10304;DHT22;5197;48.152;8.590;2023-04-29T14:37:36;15.30;1.00
10304;DHT22;5197;48.152;8.590;2023-04-29T14:40:04;15.30;1.00
10304;DHT22;5197;48.152;8.590;2023-04-29T14:42:33;15.30;1.00
10304;DHT22;5197;48.152;8.590;2023-04-29T14:45:00;15.40;1.00
10304;DHT22;5197;48.152;8.590;2023-04-29T14:47:27;15.50;1.00
10304;DHT22;5197;48.152;8.590;2023-04-29T14:49:54;15.60;1.00
10304;DHT22;5197;48.152;8.590;2023-04-29T14:52:22;15.60;1.00
10304;DHT22;5197;48.152;8.590;2023-04-29T14:54:49;15.70;1.00
10304;DHT22;5197;48.152;8.590;2023-04-29T14:57:17;15.70;1.00
10304;DHT22;5197;48.152;8.590;2023-04-29T14:59:44;15.70;1.00
10304;DHT22;5197;48.152;8.590;2023-04-29T15:02:11;15.80;1.00
10304;DHT22;5197;48.152;8.590;2023-04-29T15:04:38;15.80;1.00
10304;DHT22;5197;48.152;8.590;2023-04-29T15:07:12;15.90;1.00
10304;DHT22;5197;48.152;8.590;2023-04-29T15:09:39;16.00;1.00
10304;DHT22;5197;48.152;8.590;2023-04-29T15:12:07;16.00;1.00
10304;DHT22;5197;48.152;8.590;2023-04-29T15:14:34;15.90;1.00
10304;DHT22;5197;48.152;8.590;2023-04-29T15:17:01;15.90;1.00
10304;DHT22;5197;48.152;8.590;2023-04-29T15:19:29;15.80;1.00
10304;DHT22;5197;48.152;8.590;2023-04-29T15:21:56;15.70;1.00
10304;DHT22;5197;48.152;8.590;2023-04-29T15:24:23;15.80;1.00
10304;DHT22;5197;48.152;8.590;2023-04-29T15:26:51;15.70;1.00
10304;DHT22;5197;48.152;8.590;2023-04-29T15:29:19;15.50;1.00
10304;DHT22;5197;48.152;8.590;2023-04-29T15:31:46;15.30;1.00
10304;DHT22;5197;48.152;8.590;2023-04-29T15:34:13;15.40;1.00
10304;DHT22;5197;48.152;8.590;2023-04-29T15:36:40;15.40;1.00
10304;DHT22;5197;48.152;8.590;2023-04-29T15:39:07;15.30;1.00
10304;DHT22;5197;48.152;8.590;2023-04-29T15:41:37;15.00;1.00
10304;DHT22;5197;48.152;8.590;2023-04-29T15:44:04;14.80;1.00
10304;DHT22;5197;48.152;8.590;2023-04-29T15:46:41;14.60;1.00
10304;DHT22;5197;48.152;8.590;2023-04-29T15:49:08;14.70;1.00
10304;DHT22;5197;48.152;8.590;2023-04-29T15:51:35;14.90;1.00
10304;DHT22;5197;48.152;8.590;2023-04-29T15:54:02;14.90;1.00
10304;DHT22;5197;48.152;8.590;2023-04-29T15:56:30;14.90;1.00
10304;DHT22;5197;48.152;8.590;2023-04-29T15:58:57;14.60;1.00
10304;DHT22;5197;48.152;8.590;2023-04-29T16:01:24;14.70;1.00
10304;DHT22;5197;48.152;8.590;2023-04-29T16:03:54;14.60;1.00
10304;DHT22;5197;48.152;8.590;2023-04-29T16:06:21;14.60;1.00
10304;DHT22;5197;48.152;8.590;2023-04-29T16:08:49;14.60;1.00
10304;DHT22;5197;48.152;8.590;2023-04-29T16:11:16;14.40;1.00
10304;DHT22;5197;48.152;8.590;2023-04-29T16:13:42;14.30;1.00
10304;DHT22;5197;48.152;8.590;2023-04-29T16:16:10;14.20;1.00
10304;DHT22;5197;48.152;8.590;2023-04-29T16:18:37;14.20;1.00
10304;DHT22;5197;48.152;8.590;2023-04-29T16:21:05;14.30;1.00
10304;DHT22;5197;48.152;8.590;2023-04-29T16:23:32;14.60;1.00
10304;DHT22;5197;48.152;8.590;2023-04-29T16:26:00;14.80;1.00
10304;DHT22;5197;48.152;8.590;2023-04-29T16:28:27;15.00;1.00
10304;DHT22;5197;48.152;8.590;2023-04-29T16:30:54;15.00;1.00
10304;DHT22;5197;48.152;8.590;2023-04-29T16:33:21;15.10;1.00
10304;DHT22;5197;48.152;8.590;2023-04-29T16:35:48;15.30;1.00
10304;DHT22;5197;48.152;8.590;2023-04-29T16:38:17;15.30;1.00
10304;DHT22;5197;48.152;8.590;2023-04-29T16:40:44;15.00;1.00